< < Back
Terminal Aerodrome Forecast


Current Version              Previous Versions:   1  2  3  4  5  6  7  8  9  

Terminal Aerodrome Forecast

437
FTUS42 KGSP 242320
TAFAND
TAF
KAND 242320Z 2500/2524 29006KT P6SM SCT070 BKN250
     FM250500 35003KT P6SM FEW080 SCT250
     FM251500 06005KT P6SM SCT060 PROB30 2520/2524 -TSRA BKN060CB=



Latest METAR

442
SAUS70 KWBC 252100 RRA
MTRAND
METAR KAND 252056Z AUTO 12006KT 10SM FEW070 36/16 A3004 RMK AO2 SLP161
T03560156 58014


USA.gov is the U.S. government's official web portal to all federal, state and local government web resources and services.